sensor_id;sensor_type;location;lat;lon;timestamp;pressure;altitude;pressure_sealevel;temperature;humidity
54910;BME280;63189;51.240;9.964;2023-03-13T00:01:35;96998.41;;;6.27;100.00
54910;BME280;63189;51.240;9.964;2023-03-13T00:04:01;97000.16;;;6.25;100.00
54910;BME280;63189;51.240;9.964;2023-03-13T00:06:29;96984.72;;;6.22;100.00
54910;BME280;63189;51.240;9.964;2023-03-13T00:08:58;96977.84;;;6.21;100.00
54910;BME280;63189;51.240;9.964;2023-03-13T00:11:26;96986.16;;;6.32;100.00
54910;BME280;63189;51.240;9.964;2023-03-13T00:13:56;96992.31;;;6.28;100.00
54910;BME280;63189;51.240;9.964;2023-03-13T00:16:23;96980.38;;;6.22;100.00
54910;BME280;63189;51.240;9.964;2023-03-13T00:18:50;96982.88;;;6.27;100.00
54910;BME280;63189;51.240;9.964;2023-03-13T00:21:18;96973.44;;;6.24;100.00
54910;BME280;63189;51.240;9.964;2023-03-13T00:23:44;96978.59;;;6.24;100.00
54910;BME280;63189;51.240;9.964;2023-03-13T00:26:13;96965.06;;;6.15;100.00
54910;BME280;63189;51.240;9.964;2023-03-13T00:28:39;96961.78;;;6.10;100.00
54910;BME280;63189;51.240;9.964;2023-03-13T00:33:33;96963.38;;;6.14;100.00
54910;BME280;63189;51.240;9.964;2023-03-13T00:36:04;96959.09;;;6.13;100.00
54910;BME280;63189;51.240;9.964;2023-03-13T00:38:30;96959.19;;;6.10;100.00
54910;BME280;63189;51.240;9.964;2023-03-13T00:41:04;96962.69;;;6.08;100.00
54910;BME280;63189;51.240;9.964;2023-03-13T00:43:30;96962.09;;;5.99;100.00
54910;BME280;63189;51.240;9.964;2023-03-13T00:45:56;96943.94;;;6.00;100.00
54910;BME280;63189;51.240;9.964;2023-03-13T00:48:22;96948.25;;;6.00;100.00
54910;BME280;63189;51.240;9.964;2023-03-13T00:50:47;96939.66;;;5.99;100.00
54910;BME280;63189;51.240;9.964;2023-03-13T00:53:13;96942.28;;;5.98;100.00
54910;BME280;63189;51.240;9.964;2023-03-13T00:55:39;96920.06;;;5.89;100.00
54910;BME280;63189;51.240;9.964;2023-03-13T00:58:04;96944.88;;;5.98;100.00
54910;BME280;63189;51.240;9.964;2023-03-13T01:00:29;96925.91;;;5.97;100.00
54910;BME280;63189;51.240;9.964;2023-03-13T01:02:55;96931.72;;;6.05;100.00
54910;BME280;63189;51.240;9.964;2023-03-13T01:05:20;96902.63;;;5.97;100.00
54910;BME280;63189;51.240;9.964;2023-03-13T01:07:45;96900.84;;;5.99;100.00
54910;BME280;63189;51.240;9.964;2023-03-13T01:10:11;96894.97;;;5.94;100.00
54910;BME280;63189;51.240;9.964;2023-03-13T01:12:36;96902.53;;;6.00;100.00
54910;BME280;63189;51.240;9.964;2023-03-13T01:15:01;96897.47;;;5.97;100.00
54910;BME280;63189;51.240;9.964;2023-03-13T01:17:27;96860.03;;;5.78;100.00
54910;BME280;63189;51.240;9.964;2023-03-13T01:19:56;96899.72;;;6.08;100.00
54910;BME280;63189;51.240;9.964;2023-03-13T01:22:21;96892.91;;;6.05;100.00
54910;BME280;63189;51.240;9.964;2023-03-13T01:24:47;96874.06;;;6.00;100.00
54910;BME280;63189;51.240;9.964;2023-03-13T01:27:17;96867.84;;;6.07;100.00
54910;BME280;63189;51.240;9.964;2023-03-13T01:29:42;96873.06;;;6.06;100.00
54910;BME280;63189;51.240;9.964;2023-03-13T01:32:07;96872.91;;;6.11;100.00
54910;BME280;63189;51.240;9.964;2023-03-13T01:34:33;96878.94;;;6.11;100.00
54910;BME280;63189;51.240;9.964;2023-03-13T01:36:59;96873.75;;;6.11;100.00
54910;BME280;63189;51.240;9.964;2023-03-13T01:39:24;96868.47;;;6.14;100.00
54910;BME280;63189;51.240;9.964;2023-03-13T01:41:49;96857.38;;;6.11;100.00
54910;BME280;63189;51.240;9.964;2023-03-13T01:44:25;96862.44;;;6.14;100.00
54910;BME280;63189;51.240;9.964;2023-03-13T01:46:50;96854.00;;;6.08;100.00
54910;BME280;63189;51.240;9.964;2023-03-13T01:49:19;96848.94;;;6.05;100.00
54910;BME280;63189;51.240;9.964;2023-03-13T01:51:51;96841.84;;;6.11;100.00
54910;BME280;63189;51.240;9.964;2023-03-13T01:54:22;96854.66;;;6.15;100.00
54910;BME280;63189;51.240;9.964;2023-03-13T01:59:19;96819.56;;;6.06;100.00
54910;BME280;63189;51.240;9.964;2023-03-13T02:01:48;96825.31;;;6.15;100.00
54910;BME280;63189;51.240;9.964;2023-03-13T02:04:16;96814.28;;;6.10;100.00
54910;BME280;63189;51.240;9.964;2023-03-13T02:06:45;96810.84;;;6.09;100.00
54910;BME280;63189;51.240;9.964;2023-03-13T02:09:18;96792.84;;;6.06;100.00
54910;BME280;63189;51.240;9.964;2023-03-13T02:14:27;96799.50;;;6.13;100.00
54910;BME280;63189;51.240;9.964;2023-03-13T02:16:55;96803.75;;;6.16;100.00
54910;BME280;63189;51.240;9.964;2023-03-13T02:19:42;96799.56;;;6.12;100.00
54910;BME280;63189;51.240;9.964;2023-03-13T02:22:43;96798.53;;;6.17;100.00
54910;BME280;63189;51.240;9.964;2023-03-13T02:25:43;96795.88;;;6.19;100.00
54910;BME280;63189;51.240;9.964;2023-03-13T02:28:22;96778.56;;;6.21;100.00
54910;BME280;63189;51.240;9.964;2023-03-13T02:30:50;96777.56;;;6.25;100.00
54910;BME280;63189;51.240;9.964;2023-03-13T02:33:20;96773.25;;;6.25;100.00
54910;BME280;63189;51.240;9.964;2023-03-13T02:35:47;96779.16;;;6.29;100.00
54910;BME280;63189;51.240;9.964;2023-03-13T02:38:19;96772.31;;;6.28;100.00
54910;BME280;63189;51.240;9.964;2023-03-13T02:40:47;96748.34;;;6.21;100.00
54910;BME280;63189;51.240;9.964;2023-03-13T02:43:20;96757.56;;;6.30;100.00
54910;BME280;63189;51.240;9.964;2023-03-13T02:46:19;96733.63;;;6.23;100.00
54910;BME280;63189;51.240;9.964;2023-03-13T02:48:53;96720.84;;;6.19;100.00
54910;BME280;63189;51.240;9.964;2023-03-13T02:51:30;96729.09;;;6.30;100.00
54910;BME280;63189;51.240;9.964;2023-03-13T02:54:00;96730.66;;;6.34;100.00
54910;BME280;63189;51.240;9.964;2023-03-13T02:56:29;96727.28;;;6.32;100.00
54910;BME280;63189;51.240;9.964;2023-03-13T02:58:55;96714.34;;;6.32;100.00
54910;BME280;63189;51.240;9.964;2023-03-13T03:01:21;96713.38;;;6.36;100.00
54910;BME280;63189;51.240;9.964;2023-03-13T03:03:46;96711.56;;;6.38;100.00
54910;BME280;63189;51.240;9.964;2023-03-13T03:06:11;96707.28;;;6.37;100.00
54910;BME280;63189;51.240;9.964;2023-03-13T03:08:37;96715.78;;;6.41;100.00
54910;BME280;63189;51.240;9.964;2023-03-13T03:11:06;96720.66;;;6.50;100.00
54910;BME280;63189;51.240;9.964;2023-03-13T03:13:31;96711.94;;;6.52;100.00
54910;BME280;63189;51.240;9.964;2023-03-13T03:15:57;96659.38;;;6.25;100.00
54910;BME280;63189;51.240;9.964;2023-03-13T03:18:23;96702.28;;;6.57;100.00
54910;BME280;63189;51.240;9.964;2023-03-13T03:20:48;96687.06;;;6.48;100.00
54910;BME280;63189;51.240;9.964;2023-03-13T03:23:14;96677.59;;;6.47;100.00
54910;BME280;63189;51.240;9.964;2023-03-13T03:25:39;96687.47;;;6.61;100.00
54910;BME280;63189;51.240;9.964;2023-03-13T03:28:04;96657.44;;;6.55;100.00
54910;BME280;63189;51.240;9.964;2023-03-13T03:30:30;96655.75;;;6.54;100.00
54910;BME280;63189;51.240;9.964;2023-03-13T03:32:55;96664.09;;;6.62;100.00
54910;BME280;63189;51.240;9.964;2023-03-13T03:35:21;96646.09;;;6.59;100.00
54910;BME280;63189;51.240;9.964;2023-03-13T03:37:46;96639.00;;;6.64;100.00
54910;BME280;63189;51.240;9.964;2023-03-13T03:40:11;96632.91;;;6.65;100.00
54910;BME280;63189;51.240;9.964;2023-03-13T03:42:37;96616.84;;;6.56;100.00
54910;BME280;63189;51.240;9.964;2023-03-13T03:45:02;96623.50;;;6.63;100.00
54910;BME280;63189;51.240;9.964;2023-03-13T03:47:28;96617.38;;;6.65;100.00
54910;BME280;63189;51.240;9.964;2023-03-13T03:49:53;96602.13;;;6.58;100.00
54910;BME280;63189;51.240;9.964;2023-03-13T03:52:19;96609.56;;;6.67;100.00
54910;BME280;63189;51.240;9.964;2023-03-13T03:54:44;96602.66;;;6.68;100.00
54910;BME280;63189;51.240;9.964;2023-03-13T03:57:09;96607.53;;;6.75;100.00
54910;BME280;63189;51.240;9.964;2023-03-13T03:59:35;96601.50;;;6.75;100.00
54910;BME280;63189;51.240;9.964;2023-03-13T04:02:00;96587.69;;;6.74;100.00
54910;BME280;63189;51.240;9.964;2023-03-13T04:04:26;96590.91;;;6.81;100.00
54910;BME280;63189;51.240;9.964;2023-03-13T04:06:52;96579.59;;;6.83;100.00
54910;BME280;63189;51.240;9.964;2023-03-13T04:09:17;96570.31;;;6.78;100.00
54910;BME280;63189;51.240;9.964;2023-03-13T04:11:42;96559.84;;;6.81;100.00
54910;BME280;63189;51.240;9.964;2023-03-13T04:14:08;96555.56;;;6.80;100.00
54910;BME280;63189;51.240;9.964;2023-03-13T04:16:33;96553.88;;;6.79;100.00
54910;BME280;63189;51.240;9.964;2023-03-13T04:18:58;96553.97;;;6.76;100.00
54910;BME280;63189;51.240;9.964;2023-03-13T04:21:24;96532.72;;;6.68;100.00
54910;BME280;63189;51.240;9.964;2023-03-13T04:23:49;96537.66;;;6.74;100.00
54910;BME280;63189;51.240;9.964;2023-03-13T04:26:14;96528.25;;;6.71;100.00
54910;BME280;63189;51.240;9.964;2023-03-13T04:28:40;96526.31;;;6.76;100.00
54910;BME280;63189;51.240;9.964;2023-03-13T04:31:05;96541.81;;;6.78;100.00
54910;BME280;63189;51.240;9.964;2023-03-13T04:33:30;96521.13;;;6.76;100.00
54910;BME280;63189;51.240;9.964;2023-03-13T04:35:56;96495.13;;;6.57;100.00
54910;BME280;63189;51.240;9.964;2023-03-13T04:38:22;96510.34;;;6.65;100.00
54910;BME280;63189;51.240;9.964;2023-03-13T04:40:47;96518.66;;;6.73;100.00
54910;BME280;63189;51.240;9.964;2023-03-13T04:43:12;96493.19;;;6.62;100.00
54910;BME280;63189;51.240;9.964;2023-03-13T04:45:38;96495.78;;;6.62;100.00
54910;BME280;63189;51.240;9.964;2023-03-13T04:48:03;96456.28;;;6.34;100.00
54910;BME280;63189;51.240;9.964;2023-03-13T04:50:29;96491.72;;;6.55;100.00
54910;BME280;63189;51.240;9.964;2023-03-13T04:52:54;96481.25;;;6.58;100.00
54910;BME280;63189;51.240;9.964;2023-03-13T04:55:19;96461.31;;;6.39;100.00
54910;BME280;63189;51.240;9.964;2023-03-13T04:57:46;96472.25;;;6.45;100.00
54910;BME280;63189;51.240;9.964;2023-03-13T05:00:12;96466.09;;;6.49;100.00
54910;BME280;63189;51.240;9.964;2023-03-13T05:02:37;96472.69;;;6.56;100.00
54910;BME280;63189;51.240;9.964;2023-03-13T05:05:03;96439.84;;;6.35;100.00
54910;BME280;63189;51.240;9.964;2023-03-13T05:07:29;96477.53;;;6.65;100.00
54910;BME280;63189;51.240;9.964;2023-03-13T05:09:54;96459.81;;;6.55;100.00
54910;BME280;63189;51.240;9.964;2023-03-13T05:12:20;96473.19;;;6.66;100.00
54910;BME280;63189;51.240;9.964;2023-03-13T05:14:45;96463.56;;;6.70;100.00
54910;BME280;63189;51.240;9.964;2023-03-13T05:17:13;96438.03;;;6.60;100.00
54910;BME280;63189;51.240;9.964;2023-03-13T05:19:39;96430.00;;;6.66;100.00
54910;BME280;63189;51.240;9.964;2023-03-13T05:22:05;96448.44;;;6.81;100.00
54910;BME280;63189;51.240;9.964;2023-03-13T05:24:30;96392.47;;;6.55;100.00
54910;BME280;63189;51.240;9.964;2023-03-13T05:26:55;96432.91;;;6.81;100.00
54910;BME280;63189;51.240;9.964;2023-03-13T05:29:21;96443.06;;;6.85;100.00
54910;BME280;63189;51.240;9.964;2023-03-13T05:31:46;96395.38;;;6.69;100.00
54910;BME280;63189;51.240;9.964;2023-03-13T05:34:12;96431.69;;;6.89;100.00
54910;BME280;63189;51.240;9.964;2023-03-13T05:36:37;96409.25;;;6.68;100.00
54910;BME280;63189;51.240;9.964;2023-03-13T05:39:03;96452.34;;;6.91;100.00
54910;BME280;63189;51.240;9.964;2023-03-13T05:41:28;96399.59;;;6.72;100.00
54910;BME280;63189;51.240;9.964;2023-03-13T05:43:54;96410.09;;;6.69;100.00
54910;BME280;63189;51.240;9.964;2023-03-13T05:46:19;96412.25;;;6.79;100.00
54910;BME280;63189;51.240;9.964;2023-03-13T05:48:44;96425.91;;;6.83;100.00
54910;BME280;63189;51.240;9.964;2023-03-13T05:51:12;96402.19;;;6.72;100.00
54910;BME280;63189;51.240;9.964;2023-03-13T05:53:37;96419.69;;;6.87;100.00
54910;BME280;63189;51.240;9.964;2023-03-13T05:56:02;96415.75;;;6.78;100.00
54910;BME280;63189;51.240;9.964;2023-03-13T05:58:28;96461.25;;;7.06;100.00
54910;BME280;63189;51.240;9.964;2023-03-13T06:00:53;96419.38;;;6.94;100.00
54910;BME280;63189;51.240;9.964;2023-03-13T06:03:19;96438.53;;;7.12;100.00
54910;BME280;63189;51.240;9.964;2023-03-13T06:05:44;96429.97;;;7.10;100.00
54910;BME280;63189;51.240;9.964;2023-03-13T06:08:09;96440.53;;;7.26;100.00
54910;BME280;63189;51.240;9.964;2023-03-13T06:10:34;96398.22;;;7.05;100.00
54910;BME280;63189;51.240;9.964;2023-03-13T06:13:00;96436.03;;;7.31;100.00
54910;BME280;63189;51.240;9.964;2023-03-13T06:15:25;96426.44;;;7.33;100.00
54910;BME280;63189;51.240;9.964;2023-03-13T06:17:50;96410.59;;;7.39;100.00
54910;BME280;63189;51.240;9.964;2023-03-13T06:20:16;96406.22;;;7.41;100.00
54910;BME280;63189;51.240;9.964;2023-03-13T06:22:41;96408.72;;;7.43;100.00
54910;BME280;63189;51.240;9.964;2023-03-13T06:25:07;96403.16;;;7.52;100.00
54910;BME280;63189;51.240;9.964;2023-03-13T06:27:33;96392.78;;;7.52;100.00
54910;BME280;63189;51.240;9.964;2023-03-13T06:29:59;96355.66;;;7.31;100.00
54910;BME280;63189;51.240;9.964;2023-03-13T06:32:24;96395.16;;;7.57;100.00
54910;BME280;63189;51.240;9.964;2023-03-13T06:34:50;96393.16;;;7.63;100.00
54910;BME280;63189;51.240;9.964;2023-03-13T06:37:16;96394.06;;;7.62;100.00
54910;BME280;63189;51.240;9.964;2023-03-13T06:39:41;96399.25;;;7.62;100.00
54910;BME280;63189;51.240;9.964;2023-03-13T06:42:07;96397.09;;;7.72;100.00
54910;BME280;63189;51.240;9.964;2023-03-13T06:44:32;96409.09;;;7.74;100.00
54910;BME280;63189;51.240;9.964;2023-03-13T06:46:57;96418.41;;;7.78;100.00
54910;BME280;63189;51.240;9.964;2023-03-13T06:49:23;96396.38;;;7.68;100.00
54910;BME280;63189;51.240;9.964;2023-03-13T06:51:48;96380.88;;;7.67;100.00
54910;BME280;63189;51.240;9.964;2023-03-13T06:54:13;96417.25;;;7.86;100.00
54910;BME280;63189;51.240;9.964;2023-03-13T06:56:39;96436.00;;;7.92;100.00
54910;BME280;63189;51.240;9.964;2023-03-13T06:59:04;96430.72;;;7.94;100.00
54910;BME280;63189;51.240;9.964;2023-03-13T07:01:29;96402.50;;;7.86;100.00
54910;BME280;63189;51.240;9.964;2023-03-13T07:03:54;96436.28;;;8.05;100.00
54910;BME280;63189;51.240;9.964;2023-03-13T07:06:20;96436.06;;;8.09;100.00
54910;BME280;63189;51.240;9.964;2023-03-13T07:08:45;96426.44;;;8.11;100.00
54910;BME280;63189;51.240;9.964;2023-03-13T07:11:12;96430.47;;;8.19;100.00
54910;BME280;63189;51.240;9.964;2023-03-13T07:13:38;96429.47;;;8.21;100.00
54910;BME280;63189;51.240;9.964;2023-03-13T07:16:05;96426.53;;;8.29;100.00
54910;BME280;63189;51.240;9.964;2023-03-13T07:18:32;96419.44;;;8.32;100.00
54910;BME280;63189;51.240;9.964;2023-03-13T07:20:59;96415.84;;;8.36;100.00
54910;BME280;63189;51.240;9.964;2023-03-13T07:23:27;96396.50;;;8.42;100.00
54910;BME280;63189;51.240;9.964;2023-03-13T07:28:19;96417.00;;;8.48;100.00
54910;BME280;63189;51.240;9.964;2023-03-13T07:30:45;96407.97;;;8.38;100.00
54910;BME280;63189;51.240;9.964;2023-03-13T07:33:10;96400.88;;;8.42;100.00
54910;BME280;63189;51.240;9.964;2023-03-13T07:35:35;96416.72;;;8.54;100.00
54910;BME280;63189;51.240;9.964;2023-03-13T07:38:00;96379.16;;;8.43;100.00
54910;BME280;63189;51.240;9.964;2023-03-13T07:40:26;96414.75;;;8.59;100.00
54910;BME280;63189;51.240;9.964;2023-03-13T07:42:51;96408.72;;;8.59;100.00
54910;BME280;63189;51.240;9.964;2023-03-13T07:45:16;96406.81;;;8.62;100.00
54910;BME280;63189;51.240;9.964;2023-03-13T07:47:42;96394.31;;;8.52;100.00
54910;BME280;63189;51.240;9.964;2023-03-13T07:50:07;96405.75;;;8.66;100.00
54910;BME280;63189;51.240;9.964;2023-03-13T07:52:33;96405.69;;;8.68;100.00
54910;BME280;63189;51.240;9.964;2023-03-13T07:54:58;96416.84;;;8.70;100.00
54910;BME280;63189;51.240;9.964;2023-03-13T07:57:24;96385.09;;;8.63;100.00
54910;BME280;63189;51.240;9.964;2023-03-13T07:59:50;96399.75;;;8.83;100.00
54910;BME280;63189;51.240;9.964;2023-03-13T08:02:15;96362.13;;;8.73;100.00
54910;BME280;63189;51.240;9.964;2023-03-13T08:04:41;96388.91;;;8.92;100.00
54910;BME280;63189;51.240;9.964;2023-03-13T08:07:08;96405.81;;;9.01;100.00
54910;BME280;63189;51.240;9.964;2023-03-13T08:09:33;96394.97;;;9.10;100.00
54910;BME280;63189;51.240;9.964;2023-03-13T08:11:59;96376.69;;;9.12;100.00
54910;BME280;63189;51.240;9.964;2023-03-13T08:14:24;96389.31;;;9.19;100.00
54910;BME280;63189;51.240;9.964;2023-03-13T08:16:49;96367.59;;;9.20;100.00
54910;BME280;63189;51.240;9.964;2023-03-13T08:19:15;96355.03;;;9.11;100.00
54910;BME280;63189;51.240;9.964;2023-03-13T08:21:40;96375.91;;;9.27;100.00
54910;BME280;63189;51.240;9.964;2023-03-13T08:24:07;96355.41;;;9.21;100.00
54910;BME280;63189;51.240;9.964;2023-03-13T08:26:35;96353.13;;;9.32;100.00
54910;BME280;63189;51.240;9.964;2023-03-13T08:29:04;96359.00;;;9.36;100.00
54910;BME280;63189;51.240;9.964;2023-03-13T08:31:49;96374.66;;;9.51;100.00
54910;BME280;63189;51.240;9.964;2023-03-13T08:34:17;96365.59;;;9.59;100.00
54910;BME280;63189;51.240;9.964;2023-03-13T08:36:42;96352.00;;;9.53;100.00
54910;BME280;63189;51.240;9.964;2023-03-13T08:39:14;96366.81;;;9.69;100.00
54910;BME280;63189;51.240;9.964;2023-03-13T08:41:40;96370.28;;;9.69;100.00
54910;BME280;63189;51.240;9.964;2023-03-13T08:44:06;96385.34;;;9.80;100.00
54910;BME280;63189;51.240;9.964;2023-03-13T08:46:34;96382.56;;;9.83;100.00
54910;BME280;63189;51.240;9.964;2023-03-13T08:49:01;96374.50;;;9.88;100.00
54910;BME280;63189;51.240;9.964;2023-03-13T08:51:27;96381.47;;;9.87;100.00
54910;BME280;63189;51.240;9.964;2023-03-13T08:53:54;96370.56;;;9.96;100.00
54910;BME280;63189;51.240;9.964;2023-03-13T08:56:27;96397.28;;;10.00;100.00
54910;BME280;63189;51.240;9.964;2023-03-13T08:58:56;96380.41;;;10.07;100.00
54910;BME280;63189;51.240;9.964;2023-03-13T09:01:23;96379.34;;;10.11;100.00
54910;BME280;63189;51.240;9.964;2023-03-13T09:03:49;96355.97;;;10.09;100.00
54910;BME280;63189;51.240;9.964;2023-03-13T09:06:14;96378.16;;;10.17;100.00
54910;BME280;63189;51.240;9.964;2023-03-13T09:08:41;96374.63;;;10.18;100.00
54910;BME280;63189;51.240;9.964;2023-03-13T09:11:08;96373.78;;;10.17;100.00
54910;BME280;63189;51.240;9.964;2023-03-13T09:13:38;96363.19;;;10.20;100.00
54910;BME280;63189;51.240;9.964;2023-03-13T09:16:06;96365.34;;;10.29;100.00
54910;BME280;63189;51.240;9.964;2023-03-13T09:18:33;96358.59;;;10.41;100.00
54910;BME280;63189;51.240;9.964;2023-03-13T09:20:58;96364.59;;;10.43;100.00
54910;BME280;63189;51.240;9.964;2023-03-13T09:23:24;96368.78;;;10.46;100.00
54910;BME280;63189;51.240;9.964;2023-03-13T09:25:55;96368.59;;;10.49;100.00
54910;BME280;63189;51.240;9.964;2023-03-13T09:28:22;96367.59;;;10.51;100.00
54910;BME280;63189;51.240;9.964;2023-03-13T09:30:48;96365.59;;;10.56;100.00
54910;BME280;63189;51.240;9.964;2023-03-13T09:33:17;96325.38;;;10.60;100.00
54910;BME280;63189;51.240;9.964;2023-03-13T09:35:43;96352.94;;;10.80;100.00
54910;BME280;63189;51.240;9.964;2023-03-13T09:38:11;96324.03;;;10.99;100.00
54910;BME280;63189;51.240;9.964;2023-03-13T09:40:45;96325.34;;;11.36;100.00
54910;BME280;63189;51.240;9.964;2023-03-13T09:43:20;96335.34;;;11.87;100.00
54910;BME280;63189;51.240;9.964;2023-03-13T09:45:51;96321.44;;;12.00;100.00
54910;BME280;63189;51.240;9.964;2023-03-13T09:48:35;96307.97;;;12.21;100.00
54910;BME280;63189;51.240;9.964;2023-03-13T09:51:12;96316.19;;;12.14;100.00
54910;BME280;63189;51.240;9.964;2023-03-13T09:53:50;96344.56;;;12.06;100.00
54910;BME280;63189;51.240;9.964;2023-03-13T09:56:21;96309.22;;;11.87;100.00
54910;BME280;63189;51.240;9.964;2023-03-13T09:58:54;96321.19;;;11.91;100.00
54910;BME280;63189;51.240;9.964;2023-03-13T10:01:28;96312.19;;;11.95;100.00
54910;BME280;63189;51.240;9.964;2023-03-13T10:04:11;96299.03;;;11.96;100.00
54910;BME280;63189;51.240;9.964;2023-03-13T10:06:39;96315.38;;;12.00;100.00
54910;BME280;63189;51.240;9.964;2023-03-13T10:09:29;96333.00;;;12.10;100.00
54910;BME280;63189;51.240;9.964;2023-03-13T10:12:26;96315.25;;;12.16;100.00
54910;BME280;63189;51.240;9.964;2023-03-13T10:17:42;96306.66;;;12.55;100.00
54910;BME280;63189;51.240;9.964;2023-03-13T10:22:45;96284.72;;;12.70;98.02
54910;BME280;63189;51.240;9.964;2023-03-13T10:25:32;96293.97;;;12.76;99.22
54910;BME280;63189;51.240;9.964;2023-03-13T10:27:58;96284.78;;;12.56;98.43
54910;BME280;63189;51.240;9.964;2023-03-13T10:30:29;96301.31;;;12.56;100.00
54910;BME280;63189;51.240;9.964;2023-03-13T10:35:44;96287.16;;;12.46;100.00
54910;BME280;63189;51.240;9.964;2023-03-13T10:38:19;96307.13;;;12.47;100.00
54910;BME280;63189;51.240;9.964;2023-03-13T10:40:56;96294.75;;;12.36;100.00
54910;BME280;63189;51.240;9.964;2023-03-13T10:43:24;96308.50;;;12.26;100.00
54910;BME280;63189;51.240;9.964;2023-03-13T10:45:50;96297.44;;;12.08;100.00
54910;BME280;63189;51.240;9.964;2023-03-13T10:48:25;96312.94;;;12.11;100.00
54910;BME280;63189;51.240;9.964;2023-03-13T10:50:53;96306.41;;;12.04;100.00
54910;BME280;63189;51.240;9.964;2023-03-13T10:55:55;96308.84;;;11.93;100.00
54910;BME280;63189;51.240;9.964;2023-03-13T10:58:32;96305.78;;;11.86;100.00
54910;BME280;63189;51.240;9.964;2023-03-13T11:01:26;96312.03;;;11.83;100.00
54910;BME280;63189;51.240;9.964;2023-03-13T11:03:54;96315.47;;;11.84;100.00
54910;BME280;63189;51.240;9.964;2023-03-13T11:06:33;96315.47;;;11.84;100.00
54910;BME280;63189;51.240;9.964;2023-03-13T11:11:27;96291.09;;;11.98;100.00
54910;BME280;63189;51.240;9.964;2023-03-13T11:14:07;96298.41;;;12.34;100.00
54910;BME280;63189;51.240;9.964;2023-03-13T11:16:37;96293.34;;;12.72;100.00
54910;BME280;63189;51.240;9.964;2023-03-13T11:19:36;96291.09;;;13.06;100.00
54910;BME280;63189;51.240;9.964;2023-03-13T11:27:25;96258.13;;;13.54;100.00
54910;BME280;63189;51.240;9.964;2023-03-13T11:30:04;96249.22;;;13.69;99.73
54910;BME280;63189;51.240;9.964;2023-03-13T11:32:42;96254.03;;;13.88;97.41
54910;BME280;63189;51.240;9.964;2023-03-13T11:38:03;96248.81;;;14.12;94.92
54910;BME280;63189;51.240;9.964;2023-03-13T11:40:35;96237.47;;;14.11;92.36
54910;BME280;63189;51.240;9.964;2023-03-13T11:54:08;96242.63;;;13.76;91.88
54910;BME280;63189;51.240;9.964;2023-03-13T11:56:46;96229.53;;;13.64;92.08
54910;BME280;63189;51.240;9.964;2023-03-13T12:00:01;96218.63;;;13.70;94.18
54910;BME280;63189;51.240;9.964;2023-03-13T12:02:32;96224.91;;;13.80;93.83
54910;BME280;63189;51.240;9.964;2023-03-13T12:05:02;96201.84;;;13.72;94.22
54910;BME280;63189;51.240;9.964;2023-03-13T12:10:26;96215.09;;;14.07;93.94
54910;BME280;63189;51.240;9.964;2023-03-13T12:13:07;96206.88;;;13.88;92.56
54910;BME280;63189;51.240;9.964;2023-03-13T12:15:39;96203.03;;;13.68;94.56
54910;BME280;63189;51.240;9.964;2023-03-13T12:18:14;96233.28;;;13.72;96.42
54910;BME280;63189;51.240;9.964;2023-03-13T12:20:55;96212.00;;;13.90;96.20
54910;BME280;63189;51.240;9.964;2023-03-13T12:23:34;96230.41;;;14.01;95.81
54910;BME280;63189;51.240;9.964;2023-03-13T12:33:58;96213.53;;;13.55;95.06
54910;BME280;63189;51.240;9.964;2023-03-13T12:39:24;96199.50;;;13.56;98.15
54910;BME280;63189;51.240;9.964;2023-03-13T12:42:06;96196.28;;;13.40;97.20
54910;BME280;63189;51.240;9.964;2023-03-13T12:44:34;96190.94;;;13.29;98.55
54910;BME280;63189;51.240;9.964;2023-03-13T12:56:06;96180.78;;;13.37;99.49
54910;BME280;63189;51.240;9.964;2023-03-13T12:58:42;96148.34;;;13.27;98.90
54910;BME280;63189;51.240;9.964;2023-03-13T13:01:14;96164.56;;;13.32;100.00
54910;BME280;63189;51.240;9.964;2023-03-13T13:06:15;96147.25;;;13.42;98.71
54910;BME280;63189;51.240;9.964;2023-03-13T13:16:55;96090.34;;;13.08;98.91
54910;BME280;63189;51.240;9.964;2023-03-13T13:24:52;96133.47;;;13.27;99.62
54910;BME280;63189;51.240;9.964;2023-03-13T13:29:57;96129.31;;;13.25;99.27
54910;BME280;63189;51.240;9.964;2023-03-13T13:32:52;96131.41;;;13.20;99.06
54910;BME280;63189;51.240;9.964;2023-03-13T13:35:22;96139.25;;;13.20;99.93
54910;BME280;63189;51.240;9.964;2023-03-13T13:37:48;96126.56;;;13.14;99.81
54910;BME280;63189;51.240;9.964;2023-03-13T13:47:45;96147.91;;;13.08;99.61
54910;BME280;63189;51.240;9.964;2023-03-13T13:50:24;96138.41;;;13.07;99.40
54910;BME280;63189;51.240;9.964;2023-03-13T13:52:50;96124.47;;;13.06;99.70
54910;BME280;63189;51.240;9.964;2023-03-13T13:57:58;96120.50;;;12.88;98.70
54910;BME280;63189;51.240;9.964;2023-03-13T14:00:24;96135.91;;;12.92;99.21
54910;BME280;63189;51.240;9.964;2023-03-13T14:02:53;96127.63;;;12.86;100.00
54910;BME280;63189;51.240;9.964;2023-03-13T14:05:27;96106.19;;;12.81;100.00
54910;BME280;63189;51.240;9.964;2023-03-13T14:12:58;96124.81;;;12.76;100.00
54910;BME280;63189;51.240;9.964;2023-03-13T14:15:27;96123.97;;;12.76;100.00
54910;BME280;63189;51.240;9.964;2023-03-13T14:17:58;96117.38;;;12.70;100.00
54910;BME280;63189;51.240;9.964;2023-03-13T14:20:33;96099.91;;;12.58;100.00
54910;BME280;63189;51.240;9.964;2023-03-13T14:23:02;96114.03;;;12.68;100.00
54910;BME280;63189;51.240;9.964;2023-03-13T14:25:46;96094.78;;;12.69;100.00
54910;BME280;63189;51.240;9.964;2023-03-13T14:28:23;96102.75;;;12.67;100.00
54910;BME280;63189;51.240;9.964;2023-03-13T14:30:52;96107.03;;;12.68;100.00
54910;BME280;63189;51.240;9.964;2023-03-13T14:33:18;96113.94;;;12.57;100.00
54910;BME280;63189;51.240;9.964;2023-03-13T14:35:45;96103.38;;;12.46;100.00
54910;BME280;63189;51.240;9.964;2023-03-13T14:38:37;96104.25;;;12.19;100.00
54910;BME280;63189;51.240;9.964;2023-03-13T14:41:02;96097.22;;;12.07;100.00
54910;BME280;63189;51.240;9.964;2023-03-13T14:43:34;96099.94;;;11.93;100.00
54910;BME280;63189;51.240;9.964;2023-03-13T14:46:12;96098.25;;;11.92;100.00